Terminal Aerodrome Forecast
Issued by NWS Sterling, VA

Current Version | Previous Version | Text Only | Print | Product List | Glossary Off
Versions: 1 2 3 4 5 6 7 8 9 10 11 12 13 14 15 16 17 18 19 20 21 22 23 24 25

014
FTUS41 KLWX 302117 AAA
TAFDCA
TAF AMD
KDCA 302117Z 3021/0118 18007KT 5SM BR BKN035 BKN080
     FM010100 19012KT 6SM -SHRA OVC030
     FM010300 22012KT 4SM -SHRA OVC015
     FM010500 25011KT 5SM -SHRA BKN050
     FM010700 27010KT P6SM BKN250=

USA.gov is the U.S. government's official web portal to all federal, state and local government web resources and services.